createdAt,value
2019-03-28T00:00:30.236Z,24.70
2019-03-28T00:03:00.954Z,23.32
2019-03-28T00:05:33.102Z,21.85
2019-03-28T00:08:03.431Z,21.70
2019-03-28T00:10:35.220Z,20.85
2019-03-28T00:13:07.330Z,19.52
2019-03-28T00:15:38.790Z,21.05
2019-03-28T00:18:11.703Z,21.20
2019-03-28T00:20:42.406Z,20.70
2019-03-28T00:23:26.858Z,21.02
2019-03-28T00:25:58.372Z,21.10
2019-03-28T00:28:29.038Z,21.35
2019-03-28T00:31:00.991Z,20.40
2019-03-28T00:33:31.016Z,20.57
2019-03-28T00:36:04.924Z,20.88
2019-03-28T00:38:36.712Z,21.02
2019-03-28T00:41:08.234Z,21.00
2019-03-28T00:43:40.196Z,23.77
2019-03-28T00:46:11.441Z,23.60
2019-03-28T00:48:42.380Z,21.95
2019-03-28T00:51:14.330Z,21.55
2019-03-28T00:53:44.663Z,21.15
2019-03-28T00:56:17.133Z,20.15
2019-03-28T00:58:48.523Z,20.00
2019-03-28T01:01:18.800Z,21.30
2019-03-28T01:03:49.840Z,20.43
2019-03-28T01:06:21.994Z,21.15
2019-03-28T01:08:52.637Z,21.30
2019-03-28T01:11:24.455Z,20.25
2019-03-28T01:13:56.972Z,21.30
2019-03-28T01:16:29.855Z,19.77
2019-03-28T01:19:02.122Z,18.75
2019-03-28T01:21:33.468Z,18.85
2019-03-28T01:24:04.099Z,18.90
2019-03-28T01:26:35.752Z,18.85
2019-03-28T01:29:06.250Z,18.67
2019-03-28T01:31:37.450Z,17.73
2019-03-28T01:34:10.715Z,17.77
2019-03-28T01:36:42.813Z,14.23
2019-03-28T01:39:15.177Z,17.42
2019-03-28T01:41:46.766Z,18.50
2019-03-28T01:44:18.558Z,20.60
2019-03-28T01:46:50.825Z,21.05
2019-03-28T01:51:53.655Z,22.07
2019-03-28T01:54:24.358Z,22.55
2019-03-28T01:56:56.116Z,22.02
2019-03-28T01:59:27.153Z,20.02
2019-03-28T02:02:00.180Z,18.52
2019-03-28T02:04:30.552Z,18.30
2019-03-28T02:07:02.014Z,18.05
2019-03-28T02:09:34.488Z,16.97
2019-03-28T02:12:05.891Z,14.58
2019-03-28T02:14:39.635Z,17.23
2019-03-28T02:17:10.989Z,16.73
2019-03-28T02:19:42.535Z,17.48
2019-03-28T02:22:15.830Z,19.83
2019-03-28T02:24:50.452Z,20.08
2019-03-28T02:27:24.140Z,18.65
2019-03-28T02:29:54.486Z,19.93
2019-03-28T02:32:26.956Z,18.87
2019-03-28T02:34:57.381Z,16.65
2019-03-28T02:37:28.519Z,15.60
2019-03-28T02:39:59.434Z,16.73
2019-03-28T02:42:30.905Z,16.70
2019-03-28T02:45:04.082Z,15.38
2019-03-28T02:47:36.771Z,15.60
2019-03-28T02:50:09.352Z,16.37
2019-03-28T02:52:40.904Z,16.97
2019-03-28T02:55:13.783Z,17.02
2019-03-28T02:57:46.359Z,17.00
2019-03-28T03:00:17.015Z,14.03
2019-03-28T03:02:47.723Z,16.52
2019-03-28T03:05:20.273Z,16.67
2019-03-28T03:07:52.344Z,16.57
2019-03-28T03:10:23.091Z,17.12
2019-03-28T03:12:54.014Z,14.47
2019-03-28T03:15:24.970Z,14.33
2019-03-28T03:17:55.902Z,15.05
2019-03-28T03:20:27.422Z,14.60
2019-03-28T03:22:59.310Z,14.63
2019-03-28T03:25:30.866Z,15.88
2019-03-28T03:28:02.735Z,13.78
2019-03-28T03:30:34.289Z,15.43
2019-03-28T03:33:05.696Z,14.45
2019-03-28T03:35:37.278Z,15.25
2019-03-28T03:38:09.374Z,13.72
2019-03-28T03:40:39.763Z,13.48
2019-03-28T03:43:13.879Z,13.48
2019-03-28T03:45:47.399Z,13.68
2019-03-28T03:48:17.492Z,13.10
2019-03-28T03:50:48.776Z,13.65
2019-03-28T03:53:21.208Z,13.05
2019-03-28T03:55:52.058Z,14.33
2019-03-28T03:58:25.845Z,13.95
2019-03-28T04:00:57.818Z,13.05
2019-03-28T04:03:29.803Z,12.55
2019-03-28T04:06:01.039Z,12.43
2019-03-28T04:08:32.076Z,12.80
2019-03-28T04:11:03.218Z,13.30
2019-03-28T04:13:35.293Z,13.08
2019-03-28T04:16:06.678Z,13.45
2019-03-28T04:18:38.291Z,12.70
2019-03-28T04:21:09.934Z,12.33
2019-03-28T04:23:40.873Z,12.37
2019-03-28T04:26:12.835Z,11.48
2019-03-28T04:28:44.077Z,11.85
2019-03-28T04:31:14.403Z,10.45
2019-03-28T04:33:47.085Z,10.35
2019-03-28T04:36:18.325Z,9.73
2019-03-28T04:38:49.057Z,10.35
2019-03-28T04:41:22.254Z,10.95
2019-03-28T04:43:56.974Z,10.50
2019-03-28T04:46:27.406Z,11.20
2019-03-28T04:48:58.851Z,9.80
2019-03-28T04:51:29.775Z,10.95
2019-03-28T04:56:35.653Z,10.80
2019-03-28T04:59:06.495Z,10.35
2019-03-28T05:01:38.037Z,11.10
2019-03-28T05:04:08.877Z,11.18
2019-03-28T05:06:40.011Z,11.08
2019-03-28T05:09:12.381Z,9.65
2019-03-28T05:11:43.728Z,9.40
2019-03-28T05:14:14.056Z,8.78
2019-03-28T05:16:47.274Z,9.45
2019-03-28T05:19:21.150Z,9.80
2019-03-28T05:21:53.727Z,9.15
2019-03-28T05:24:26.527Z,9.33
2019-03-28T05:26:56.826Z,9.95
2019-03-28T05:29:27.054Z,9.08
2019-03-28T05:31:57.682Z,9.58
2019-03-28T05:34:31.793Z,9.80
2019-03-28T05:37:06.826Z,7.07
2019-03-28T05:39:37.575Z,9.90
2019-03-28T05:42:10.338Z,10.40
2019-03-28T05:44:41.637Z,10.90
2019-03-28T05:47:16.410Z,10.32
2019-03-28T05:49:47.095Z,11.20
2019-03-28T05:52:17.978Z,10.78
2019-03-28T05:54:51.454Z,10.00
2019-03-28T05:57:24.873Z,10.43
2019-03-28T05:59:56.715Z,10.15
2019-03-28T06:02:27.927Z,9.38
2019-03-28T06:04:58.483Z,10.68
2019-03-28T06:07:29.825Z,9.35
2019-03-28T06:10:01.175Z,8.15
2019-03-28T06:12:32.130Z,9.40
2019-03-28T06:15:04.279Z,7.90
2019-03-28T06:17:34.760Z,7.35
2019-03-28T06:20:08.920Z,8.30
2019-03-28T06:25:09.876Z,7.00
2019-03-28T06:27:40.604Z,6.15
2019-03-28T06:30:12.051Z,7.37
2019-03-28T06:32:43.671Z,7.12
2019-03-28T06:35:14.215Z,6.67
2019-03-28T06:37:51.375Z,6.65
2019-03-28T06:40:21.736Z,6.80
2019-03-28T06:42:52.805Z,5.42
2019-03-28T06:45:25.035Z,7.25
2019-03-28T06:47:55.478Z,10.58
2019-03-28T06:50:26.102Z,6.70
2019-03-28T06:52:58.273Z,6.95
2019-03-28T06:55:31.059Z,6.20
2019-03-28T06:58:02.193Z,6.70
2019-03-28T07:00:32.617Z,5.30
2019-03-28T07:03:04.278Z,5.10
2019-03-28T07:05:34.710Z,8.78
2019-03-28T07:08:05.939Z,6.75
2019-03-28T07:10:36.684Z,4.97
2019-03-28T07:13:10.755Z,5.55
2019-03-28T07:15:40.966Z,6.45
2019-03-28T07:18:13.576Z,5.53
2019-03-28T07:20:44.109Z,5.45
2019-03-28T07:23:15.353Z,4.62
2019-03-28T07:25:46.596Z,4.85
2019-03-28T07:28:18.810Z,5.70
2019-03-28T07:30:49.085Z,6.42
2019-03-28T07:33:22.399Z,5.60
2019-03-28T07:35:54.843Z,6.95
2019-03-28T07:38:26.302Z,7.35
2019-03-28T07:40:57.139Z,6.67
2019-03-28T07:43:28.185Z,6.33
2019-03-28T07:45:58.497Z,7.90
2019-03-28T07:48:29.741Z,7.83
2019-03-28T07:51:00.373Z,5.97
2019-03-28T07:53:31.714Z,6.65
2019-03-28T07:56:02.558Z,7.10
2019-03-28T07:58:36.050Z,6.55
2019-03-28T08:01:07.407Z,6.85
2019-03-28T08:03:39.964Z,6.33
2019-03-28T08:06:12.818Z,7.33
2019-03-28T08:08:44.755Z,8.43
2019-03-28T08:11:20.250Z,6.45
2019-03-28T08:13:51.916Z,6.87
2019-03-28T08:16:22.443Z,8.63
2019-03-28T08:18:55.004Z,6.78
2019-03-28T08:21:25.446Z,6.90
2019-03-28T08:23:58.024Z,8.40
2019-03-28T08:26:30.289Z,8.45
2019-03-28T08:29:02.356Z,10.03
2019-03-28T08:31:33.597Z,7.72
2019-03-28T08:34:03.817Z,7.83
2019-03-28T08:36:35.127Z,8.95
2019-03-28T08:39:07.230Z,8.68
2019-03-28T08:41:37.772Z,8.35
2019-03-28T08:44:10.695Z,8.75
2019-03-28T08:46:41.984Z,9.60
2019-03-28T08:49:13.655Z,10.05
2019-03-28T08:51:46.568Z,10.93
2019-03-28T08:54:18.494Z,9.25
2019-03-28T08:56:49.921Z,9.00
2019-03-28T08:59:20.493Z,8.63
2019-03-28T09:01:52.894Z,8.30
2019-03-28T09:04:24.697Z,9.93
2019-03-28T09:06:57.098Z,9.00
2019-03-28T09:12:00.320Z,6.85
2019-03-28T09:14:32.238Z,7.75
2019-03-28T09:17:04.901Z,6.22
2019-03-28T09:19:38.730Z,6.72
2019-03-28T09:22:07.507Z,6.67
2019-03-28T09:24:38.857Z,7.08
2019-03-28T09:27:09.173Z,6.12
2019-03-28T09:29:41.438Z,5.80
2019-03-28T09:32:12.976Z,4.50
2019-03-28T09:34:44.240Z,6.65
2019-03-28T09:37:15.295Z,6.92
2019-03-28T09:39:47.465Z,6.17
2019-03-28T09:42:18.172Z,5.97
2019-03-28T09:44:49.215Z,7.70
2019-03-28T09:47:20.051Z,7.35
2019-03-28T09:49:53.644Z,8.43
2019-03-28T09:52:24.794Z,7.05
2019-03-28T09:54:55.743Z,7.35
2019-03-28T09:57:27.438Z,8.88
2019-03-28T09:59:58.215Z,8.43
2019-03-28T10:02:30.178Z,6.87
2019-03-28T10:05:02.344Z,7.95
2019-03-28T10:07:33.899Z,8.13
2019-03-28T10:10:05.500Z,8.38
2019-03-28T10:12:36.591Z,9.98
2019-03-28T10:15:07.325Z,7.33
2019-03-28T10:17:37.951Z,7.87
2019-03-28T10:20:09.003Z,9.35
2019-03-28T10:22:39.726Z,8.90
2019-03-28T10:25:12.550Z,9.08
2019-03-28T10:27:43.148Z,7.00
2019-03-28T10:30:14.997Z,7.22
2019-03-28T10:32:46.342Z,7.50
2019-03-28T10:35:27.317Z,5.60
2019-03-28T10:37:58.278Z,6.55
2019-03-28T10:40:28.777Z,8.18
2019-03-28T10:42:59.305Z,5.62
2019-03-28T10:45:33.449Z,5.92
2019-03-28T10:48:02.802Z,5.43
2019-03-28T10:50:41.634Z,6.70
2019-03-28T10:53:07.359Z,6.30
2019-03-28T10:55:38.294Z,6.60
2019-03-28T10:58:18.294Z,7.87
2019-03-28T11:00:43.161Z,6.55
2019-03-28T11:03:13.475Z,8.35
2019-03-28T11:05:44.605Z,6.95
2019-03-28T11:08:15.233Z,5.80
2019-03-28T11:10:45.724Z,5.67
2019-03-28T11:13:17.732Z,5.92
2019-03-28T11:15:49.378Z,6.22
2019-03-28T11:18:19.963Z,5.42
2019-03-28T11:20:50.636Z,6.65
2019-03-28T11:23:21.586Z,5.72
2019-03-28T11:25:57.193Z,5.53
2019-03-28T11:28:26.761Z,5.95
2019-03-28T11:30:57.797Z,5.97
2019-03-28T11:33:30.615Z,6.37
2019-03-28T11:36:02.731Z,5.20
2019-03-28T11:38:33.546Z,6.58
2019-03-28T11:41:04.897Z,6.90
2019-03-28T11:43:37.169Z,5.95
2019-03-28T11:46:08.012Z,5.65
2019-03-28T11:48:44.973Z,5.72
2019-03-28T11:51:17.352Z,6.85
2019-03-28T11:53:49.002Z,7.83
2019-03-28T11:56:20.150Z,7.03
2019-03-28T11:58:51.373Z,18.42
2019-03-28T12:01:22.122Z,6.37
2019-03-28T12:03:52.761Z,6.83
2019-03-28T12:06:24.102Z,5.40
2019-03-28T12:08:56.010Z,6.40
2019-03-28T12:11:27.598Z,6.40
2019-03-28T12:13:59.987Z,7.95
2019-03-28T12:16:30.712Z,5.62
2019-03-28T12:19:01.256Z,4.87
2019-03-28T12:21:34.031Z,6.42
2019-03-28T12:24:05.578Z,5.23
2019-03-28T12:26:35.897Z,4.50
2019-03-28T12:29:09.713Z,5.58
2019-03-28T12:31:43.825Z,5.22
2019-03-28T12:34:16.859Z,5.10
2019-03-28T12:36:48.253Z,5.78
2019-03-28T12:39:20.923Z,5.12
2019-03-28T12:41:52.843Z,6.00
2019-03-28T12:44:25.870Z,20.82
2019-03-28T12:46:56.091Z,6.40
2019-03-28T12:49:28.155Z,6.03
2019-03-28T12:52:01.305Z,6.20
2019-03-28T12:54:34.063Z,6.05
2019-03-28T12:57:05.596Z,5.83
2019-03-28T12:59:36.980Z,6.10
2019-03-28T13:02:08.988Z,5.08
2019-03-28T13:04:39.736Z,4.70
2019-03-28T13:07:10.778Z,5.50
2019-03-28T13:09:41.392Z,5.05
2019-03-28T13:12:11.935Z,6.70
2019-03-28T13:14:44.700Z,7.45
2019-03-28T13:17:19.177Z,11.18
2019-03-28T13:19:50.575Z,6.95
2019-03-28T13:22:22.014Z,5.83
2019-03-28T13:24:52.543Z,5.72
2019-03-28T13:27:27.827Z,6.47
2019-03-28T13:30:00.572Z,6.00
2019-03-28T13:32:41.030Z,5.87
2019-03-28T13:35:04.177Z,4.70
2019-03-28T13:37:34.504Z,6.92
2019-03-28T13:40:07.587Z,6.45
2019-03-28T13:42:38.767Z,7.80
2019-03-28T13:45:11.773Z,6.08
2019-03-28T13:47:43.422Z,6.45
2019-03-28T13:50:15.225Z,7.53
2019-03-28T13:52:46.474Z,5.87
2019-03-28T13:55:17.062Z,7.33
2019-03-28T13:57:47.928Z,8.43
2019-03-28T14:00:24.075Z,7.22
2019-03-28T14:02:58.955Z,12.73
2019-03-28T14:05:29.459Z,12.53
2019-03-28T14:11:19.971Z,10.32
2019-03-28T14:13:52.554Z,12.03
2019-03-28T14:16:23.703Z,11.40
2019-03-28T14:18:54.427Z,12.05
2019-03-28T14:21:25.340Z,12.65
2019-03-28T14:23:56.501Z,8.95
2019-03-28T14:26:27.143Z,10.23
2019-03-28T14:29:00.523Z,11.03
2019-03-28T14:31:31.040Z,9.48
2019-03-28T14:34:03.223Z,8.20
2019-03-28T14:36:35.179Z,8.80
2019-03-28T14:39:07.448Z,7.60
2019-03-28T14:41:38.691Z,8.28
2019-03-28T14:44:09.237Z,8.88
2019-03-28T14:46:39.858Z,10.60
2019-03-28T14:49:11.440Z,8.15
2019-03-28T14:51:43.466Z,9.05
2019-03-28T14:54:15.232Z,7.65
2019-03-28T14:56:45.861Z,10.70
2019-03-28T14:59:31.997Z,7.90
2019-03-28T15:01:51.260Z,6.00
2019-03-28T15:04:21.944Z,5.53
2019-03-28T15:06:54.415Z,5.10
2019-03-28T15:09:26.515Z,6.30
2019-03-28T15:11:58.765Z,6.08
2019-03-28T15:14:50.576Z,7.87
2019-03-28T15:17:21.501Z,8.35
2019-03-28T15:19:53.122Z,7.85
2019-03-28T15:22:26.321Z,9.90
2019-03-28T15:24:59.285Z,7.00
2019-03-28T15:27:29.558Z,5.25
2019-03-28T15:30:00.514Z,9.05
2019-03-28T15:32:34.608Z,5.45
2019-03-28T15:35:06.853Z,8.53
2019-03-28T15:37:37.826Z,6.42
2019-03-28T15:40:08.651Z,5.60
2019-03-28T15:42:39.771Z,5.10
2019-03-28T15:45:12.779Z,5.85
2019-03-28T15:47:43.713Z,6.00
2019-03-28T15:50:15.062Z,7.15
2019-03-28T15:52:45.954Z,6.08
2019-03-28T15:55:17.144Z,7.87
2019-03-28T15:57:49.716Z,8.53
2019-03-28T16:00:20.965Z,6.78
2019-03-28T16:02:52.095Z,10.90
2019-03-28T16:05:23.053Z,7.60
2019-03-28T16:07:53.890Z,8.05
2019-03-28T16:10:27.988Z,9.25
2019-03-28T16:12:59.439Z,13.70
2019-03-28T16:15:29.982Z,7.72
2019-03-28T16:18:00.525Z,6.28
2019-03-28T16:20:32.764Z,5.22
2019-03-28T16:23:03.892Z,11.75
2019-03-28T16:25:37.296Z,11.45
2019-03-28T16:28:09.055Z,9.55
2019-03-28T16:30:39.592Z,8.60
2019-03-28T16:33:10.114Z,8.93
2019-03-28T16:35:41.363Z,9.33
2019-03-28T16:38:11.416Z,12.53
2019-03-28T16:40:42.634Z,23.20
2019-03-28T16:43:16.190Z,18.90
2019-03-28T16:45:47.870Z,30.97
2019-03-28T16:48:20.562Z,27.42
2019-03-28T16:50:51.894Z,27.22
2019-03-28T16:53:23.663Z,27.30
2019-03-28T16:55:54.600Z,25.17
2019-03-28T16:58:26.230Z,23.55
2019-03-28T17:00:57.082Z,18.25
2019-03-28T17:03:28.304Z,18.87
2019-03-28T17:05:59.055Z,17.12
2019-03-28T17:08:30.052Z,15.98
2019-03-28T17:11:01.814Z,16.42
2019-03-28T17:13:34.315Z,16.67
2019-03-28T17:16:07.041Z,24.80
2019-03-28T17:18:38.513Z,24.27
2019-03-28T17:21:09.018Z,24.60
2019-03-28T17:23:41.186Z,23.27
2019-03-28T17:26:11.571Z,23.45
2019-03-28T17:28:42.406Z,19.75
2019-03-28T17:31:15.349Z,19.67
2019-03-28T17:33:47.679Z,23.38
2019-03-28T17:36:19.312Z,26.23
2019-03-28T17:38:52.408Z,27.93
2019-03-28T17:41:23.341Z,27.85
2019-03-28T17:43:55.200Z,28.30
2019-03-28T17:46:25.726Z,26.02
2019-03-28T17:48:57.694Z,25.92
2019-03-28T17:51:31.697Z,16.45
2019-03-28T17:54:02.841Z,19.12
2019-03-28T17:56:33.573Z,17.37
2019-03-28T18:01:37.383Z,17.75
2019-03-28T18:04:22.184Z,16.30
2019-03-28T18:06:43.216Z,17.35
2019-03-28T18:09:14.499Z,16.32
2019-03-28T18:11:47.805Z,16.15
2019-03-28T18:14:19.144Z,13.95
2019-03-28T18:16:49.674Z,13.68
2019-03-28T18:19:21.933Z,12.82
2019-03-28T18:22:03.233Z,33.58
2019-03-28T18:24:30.279Z,13.65
2019-03-28T18:26:59.568Z,14.47
2019-03-28T18:29:31.146Z,15.45
2019-03-28T18:32:01.743Z,15.95
2019-03-28T18:34:32.367Z,15.93
2019-03-28T18:37:04.101Z,16.65
2019-03-28T18:39:35.802Z,15.23
2019-03-28T18:42:07.454Z,15.32
2019-03-28T18:44:41.674Z,16.48
2019-03-28T18:47:12.284Z,16.45
2019-03-28T18:49:42.608Z,14.58
2019-03-28T18:52:18.446Z,11.77
2019-03-28T18:54:50.874Z,13.13
2019-03-28T18:57:22.177Z,15.55
2019-03-28T18:59:54.654Z,14.87
2019-03-28T19:02:26.513Z,13.48
2019-03-28T19:05:00.006Z,12.05
2019-03-28T19:07:31.558Z,15.58
2019-03-28T19:10:03.621Z,13.93
2019-03-28T19:12:34.665Z,12.85
2019-03-28T19:15:06.796Z,14.63
2019-03-28T19:17:37.861Z,13.28
2019-03-28T19:20:10.235Z,11.97
2019-03-28T19:22:41.887Z,15.48
2019-03-28T19:25:12.450Z,15.23
2019-03-28T19:27:44.816Z,15.48
2019-03-28T19:30:16.938Z,15.58
2019-03-28T19:32:48.778Z,22.00
2019-03-28T19:35:32.402Z,21.77
2019-03-28T19:37:53.974Z,21.95
2019-03-28T19:40:27.361Z,25.17
2019-03-28T19:42:58.004Z,29.50
2019-03-28T19:45:35.811Z,29.30
2019-03-28T19:48:06.524Z,29.87
2019-03-28T19:50:38.698Z,25.88
2019-03-28T19:53:11.739Z,21.52
2019-03-28T19:55:43.628Z,23.80
2019-03-28T19:58:19.276Z,22.85
2019-03-28T20:00:50.629Z,21.45
2019-03-28T20:03:23.354Z,23.10
2019-03-28T20:05:56.187Z,23.42
2019-03-28T20:08:26.545Z,20.90
2019-03-28T20:10:59.098Z,24.52
2019-03-28T20:13:31.008Z,21.68
2019-03-28T20:16:02.090Z,19.07
2019-03-28T20:18:33.372Z,20.27
2019-03-28T20:21:04.613Z,17.30
2019-03-28T20:23:36.440Z,16.95
2019-03-28T20:26:07.381Z,17.55
2019-03-28T20:28:38.426Z,16.45
2019-03-28T20:31:09.851Z,16.32
2019-03-28T20:33:42.161Z,17.60
2019-03-28T20:36:36.223Z,18.32
2019-03-28T20:38:58.053Z,18.87
2019-03-28T20:41:23.304Z,19.20
2019-03-28T20:43:54.685Z,17.37
2019-03-28T20:46:28.998Z,13.70
2019-03-28T20:48:59.353Z,17.10
2019-03-28T20:51:30.776Z,17.65
2019-03-28T20:54:03.711Z,19.15
2019-03-28T20:56:34.701Z,19.73
2019-03-28T20:59:07.026Z,21.35
2019-03-28T21:01:42.382Z,19.12
2019-03-28T21:04:11.097Z,19.42
2019-03-28T21:06:42.508Z,19.40
2019-03-28T21:09:13.481Z,19.00
2019-03-28T21:11:48.908Z,19.80
2019-03-28T21:16:49.569Z,18.50
2019-03-28T21:19:20.716Z,18.17
2019-03-28T21:21:55.214Z,22.90
2019-03-28T21:24:27.805Z,17.45
2019-03-28T21:26:58.848Z,19.05
2019-03-28T21:29:29.381Z,17.55
2019-03-28T21:32:00.008Z,19.25
2019-03-28T21:34:32.889Z,18.82
2019-03-28T21:37:08.739Z,22.70
2019-03-28T21:39:40.243Z,20.10
2019-03-28T21:42:12.391Z,20.00
2019-03-28T21:44:42.780Z,19.25
2019-03-28T21:47:15.905Z,20.47
2019-03-28T21:49:47.453Z,19.75
2019-03-28T21:52:18.052Z,18.92
2019-03-28T21:54:51.041Z,21.30
2019-03-28T21:57:25.222Z,23.47
2019-03-28T21:59:56.544Z,20.45
2019-03-28T22:02:28.367Z,28.55
2019-03-28T22:05:00.990Z,28.67
2019-03-28T22:07:32.483Z,26.35
2019-03-28T22:10:04.240Z,30.88
2019-03-28T22:12:34.773Z,30.72
2019-03-28T22:15:07.654Z,30.68
2019-03-28T22:17:38.590Z,27.15
2019-03-28T22:20:08.807Z,28.70
2019-03-28T22:22:43.325Z,27.27
2019-03-28T22:25:13.343Z,24.82
2019-03-28T22:27:47.491Z,26.30
2019-03-28T22:30:19.112Z,27.45
2019-03-28T22:32:52.610Z,27.10
2019-03-28T22:35:25.287Z,25.17
2019-03-28T22:37:56.528Z,27.17
2019-03-28T22:40:27.975Z,25.10
2019-03-28T22:42:59.835Z,26.33
2019-03-28T22:45:30.873Z,28.27
2019-03-28T22:48:10.659Z,28.25
2019-03-28T22:50:33.669Z,26.87
2019-03-28T22:53:05.120Z,26.07
2019-03-28T22:55:35.869Z,27.77
2019-03-28T22:58:08.088Z,26.73
2019-03-28T23:00:46.432Z,27.58
2019-03-28T23:03:21.154Z,28.32
2019-03-28T23:05:52.449Z,28.42
2019-03-28T23:08:23.140Z,27.93
2019-03-28T23:10:54.975Z,30.12
2019-03-28T23:13:28.591Z,30.40
2019-03-28T23:15:59.062Z,30.57
2019-03-28T23:18:31.900Z,31.80
2019-03-28T23:21:03.018Z,32.48
2019-03-28T23:23:35.024Z,38.83
2019-03-28T23:26:06.044Z,36.35
2019-03-28T23:28:37.757Z,40.80
2019-03-28T23:31:08.568Z,41.13
2019-03-28T23:33:39.779Z,36.90
2019-03-28T23:36:10.510Z,33.38
2019-03-28T23:38:41.248Z,32.00
2019-03-28T23:41:13.166Z,29.42
2019-03-28T23:43:43.539Z,29.00
2019-03-28T23:46:14.907Z,27.82
2019-03-28T23:48:46.018Z,25.68
2019-03-28T23:51:17.159Z,26.02
2019-03-28T23:53:47.993Z,26.65
2019-03-28T23:56:20.271Z,26.55
2019-03-28T23:58:51.497Z,26.62
